Time,TemperatureF,DewpointF,PressureIn,WindDirection,WindDirectionDegrees,WindSpeedMPH,WindSpeedGustMPH,Humidity,HourlyPrecipIn,Conditions,Clouds,dailyrainin,SolarRadiationWatts/m^2,SoftwareType,DateUTC
2013-02-18 00:11:00,49.9,37.0,30.23,NW,316,7.0,-999.0,62,-99.99,,,0.00,0,weatherlink.com 1.10,2013-02-18 05:11:00,
2013-02-18 00:26:00,49.9,37.0,30.23,NNW,338,2.0,-999.0,62,-99.99,,,0.00,0,weatherlink.com 1.10,2013-02-18 05:26:00,
2013-02-18 00:41:00,49.9,37.0,30.23,NW,308,3.0,-999.0,62,-99.99,,,0.00,0,weatherlink.com 1.10,2013-02-18 05:41:00,
2013-02-18 00:56:00,49.9,37.0,30.23,NW,313,0.0,-999.0,62,-99.99,,,0.00,0,weatherlink.com 1.10,2013-02-18 05:56:00,
2013-02-18 01:11:00,49.9,38.0,30.23,WNW,298,1.0,-999.0,63,-99.99,,,0.00,0,weatherlink.com 1.10,2013-02-18 06:11:00,
2013-02-18 01:26:00,49.8,38.0,30.22,WNW,282,3.0,-999.0,63,-99.99,,,0.00,0,weatherlink.com 1.10,2013-02-18 06:26:00,
2013-02-18 01:41:00,49.8,38.0,30.22,NNW,340,4.0,-999.0,63,-99.99,,,0.00,0,weatherlink.com 1.10,2013-02-18 06:41:00,
2013-02-18 01:57:00,49.6,37.0,30.22,NNW,329,4.0,-999.0,63,-99.99,,,0.00,0,weatherlink.com 1.10,2013-02-18 06:57:00,
2013-02-18 02:11:00,49.5,37.0,30.22,NW,317,1.0,-999.0,63,-99.99,,,0.00,0,weatherlink.com 1.10,2013-02-18 07:11:00,
2013-02-18 02:26:00,49.4,38.0,30.21,NW,306,1.0,-999.0,64,-99.99,,,0.00,0,weatherlink.com 1.10,2013-02-18 07:26:00,
2013-02-18 02:41:00,49.2,37.0,30.21,WNW,300,4.0,-999.0,64,-99.99,,,0.00,0,weatherlink.com 1.10,2013-02-18 07:41:00,
2013-02-18 02:56:00,49.2,37.0,30.20,NW,317,2.0,-999.0,64,-99.99,,,0.00,0,weatherlink.com 1.10,2013-02-18 07:56:00,
2013-02-18 03:26:00,49.1,37.0,30.20,NW,312,3.0,-999.0,63,-99.99,,,0.00,0,weatherlink.com 1.10,2013-02-18 08:26:00,
2013-02-18 03:41:00,49.1,37.0,30.19,NNW,343,3.0,-999.0,63,-99.99,,,0.00,0,weatherlink.com 1.10,2013-02-18 08:41:00,
2013-02-18 03:56:00,49.1,37.0,30.19,NW,305,6.0,-999.0,63,-99.99,,,0.00,0,weatherlink.com 1.10,2013-02-18 08:56:00,
2013-02-18 04:11:00,49.1,36.0,30.19,NNW,329,3.0,-999.0,62,-99.99,,,0.00,0,weatherlink.com 1.10,2013-02-18 09:11:00,
2013-02-18 04:26:00,49.2,37.0,30.19,WNW,300,5.0,-999.0,62,-99.99,,,0.00,0,weatherlink.com 1.10,2013-02-18 09:26:00,
2013-02-18 04:41:00,49.1,36.0,30.19,North,350,3.0,-999.0,62,-99.99,,,0.00,0,weatherlink.com 1.10,2013-02-18 09:41:00,
2013-02-18 04:56:00,49.1,37.0,30.19,WNW,289,7.0,-999.0,63,-99.99,,,0.00,0,weatherlink.com 1.10,2013-02-18 09:56:00,
2013-02-18 05:11:00,49.1,37.0,30.20,NW,314,3.0,-999.0,63,-99.99,,,0.00,0,weatherlink.com 1.10,2013-02-18 10:11:00,
2013-02-18 05:26:00,48.9,37.0,30.20,NW,315,4.0,-999.0,64,-99.99,,,0.00,0,weatherlink.com 1.10,2013-02-18 10:26:00,
2013-02-18 05:41:00,48.8,37.0,30.20,NNW,327,4.0,-999.0,64,-99.99,,,0.00,0,weatherlink.com 1.10,2013-02-18 10:41:00,
2013-02-18 05:56:00,48.8,37.0,30.20,NNW,330,3.0,-999.0,65,-99.99,,,0.00,0,weatherlink.com 1.10,2013-02-18 10:56:00,
2013-02-18 06:11:00,48.6,37.0,30.20,NW,322,2.0,-999.0,65,-99.99,,,0.00,0,weatherlink.com 1.10,2013-02-18 11:11:00,
2013-02-18 06:26:00,48.6,37.0,30.20,NW,304,1.0,-999.0,64,-99.99,,,0.00,0,weatherlink.com 1.10,2013-02-18 11:26:00,
2013-02-18 06:41:00,48.6,37.0,30.21,NW,315,4.0,-999.0,64,-99.99,,,0.00,0,weatherlink.com 1.10,2013-02-18 11:41:00,
2013-02-18 06:56:00,48.6,37.0,30.21,NW,316,1.0,-999.0,64,-99.99,,,0.00,5,weatherlink.com 1.10,2013-02-18 11:56:00,
2013-02-18 07:11:00,48.6,37.0,30.22,WNW,298,1.0,-999.0,64,-99.99,,,0.00,12,weatherlink.com 1.10,2013-02-18 12:11:00,
2013-02-18 07:26:00,48.6,37.0,30.22,NW,313,0.0,-999.0,65,-99.99,,,0.00,21,weatherlink.com 1.10,2013-02-18 12:26:00,
2013-02-18 07:41:00,48.8,37.0,30.22,NW,320,3.0,-999.0,65,-99.99,,,0.00,26,weatherlink.com 1.10,2013-02-18 12:41:00,
2013-02-18 07:56:00,49.1,38.0,30.22,NW,308,4.0,-999.0,65,-99.99,,,0.00,35,weatherlink.com 1.10,2013-02-18 12:56:00,
2013-02-18 08:11:00,49.5,38.0,30.22,NW,304,2.0,-999.0,65,-99.99,,,0.00,37,weatherlink.com 1.10,2013-02-18 13:11:00,
2013-02-18 08:26:00,51.1,39.0,30.23,North,349,0.0,-999.0,64,-99.99,,,0.00,88,weatherlink.com 1.10,2013-02-18 13:26:00,
2013-02-18 08:41:00,52.2,40.0,30.23,NNW,328,0.0,-999.0,63,-99.99,,,0.00,227,weatherlink.com 1.10,2013-02-18 13:41:00,
2013-02-18 08:56:00,53.8,41.0,30.23,WNW,302,3.0,-999.0,62,-99.99,,,0.00,139,weatherlink.com 1.10,2013-02-18 13:56:00,
2013-02-18 09:11:00,55.7,43.0,30.24,WNW,302,1.0,-999.0,62,-99.99,,,0.00,204,weatherlink.com 1.10,2013-02-18 14:11:00,
2013-02-18 09:26:00,58.9,45.0,30.24,WNW,303,4.0,-999.0,60,-99.99,,,0.00,295,weatherlink.com 1.10,2013-02-18 14:26:00,
2013-02-18 09:41:00,65.5,47.0,30.24,NE,56,9.0,-999.0,51,-99.99,,,0.00,624,weatherlink.com 1.10,2013-02-18 14:41:00,
2013-02-18 09:56:00,65.8,46.0,30.24,NE,49,3.0,-999.0,49,-99.99,,,0.00,761,weatherlink.com 1.10,2013-02-18 14:56:00,
2013-02-18 10:11:00,66.0,46.0,30.24,ENE,65,9.0,-999.0,49,-99.99,,,0.00,701,weatherlink.com 1.10,2013-02-18 15:11:00,
2013-02-18 10:26:00,65.3,47.0,30.25,ENE,62,6.0,-999.0,52,-99.99,,,0.00,313,weatherlink.com 1.10,2013-02-18 15:26:00,
2013-02-18 10:41:00,65.5,47.0,30.25,ENE,64,6.0,-999.0,51,-99.99,,,0.00,345,weatherlink.com 1.10,2013-02-18 15:41:00,
2013-02-18 10:56:00,66.9,48.0,30.25,East,80,3.0,-999.0,50,-99.99,,,0.00,928,weatherlink.com 1.10,2013-02-18 15:56:00,
2013-02-18 11:11:00,66.1,48.0,30.25,ENE,78,3.0,-999.0,53,-99.99,,,0.00,239,weatherlink.com 1.10,2013-02-18 16:11:00,
2013-02-18 11:26:00,66.0,48.0,30.25,ENE,63,6.0,-999.0,53,-99.99,,,0.00,404,weatherlink.com 1.10,2013-02-18 16:26:00,
2013-02-18 11:41:00,67.8,49.0,30.25,ENE,67,6.0,-999.0,52,-99.99,,,0.00,1083,weatherlink.com 1.10,2013-02-18 16:41:00,
2013-02-18 11:56:00,67.3,49.0,30.24,NE,44,7.0,-999.0,53,-99.99,,,0.00,410,weatherlink.com 1.10,2013-02-18 16:56:00,
2013-02-18 12:11:00,68.3,49.0,30.24,ENE,69,4.0,-999.0,51,-99.99,,,0.00,399,weatherlink.com 1.10,2013-02-18 17:11:00,
2013-02-18 12:26:00,67.3,50.0,30.23,ENE,62,4.0,-999.0,54,-99.99,,,0.00,355,weatherlink.com 1.10,2013-02-18 17:26:00,
2013-02-18 12:41:00,68.6,51.0,30.23,ESE,117,2.0,-999.0,53,-99.99,,,0.00,538,weatherlink.com 1.10,2013-02-18 17:41:00,
2013-02-18 13:11:00,67.4,51.0,30.22,ENE,69,6.0,-999.0,56,-99.99,,,0.00,283,weatherlink.com 1.10,2013-02-18 18:11:00,
2013-02-18 13:26:00,67.4,51.0,30.21,East,88,0.0,-999.0,56,-99.99,,,0.00,322,weatherlink.com 1.10,2013-02-18 18:26:00,
2013-02-18 13:41:00,68.3,52.0,30.20,East,82,2.0,-999.0,56,-99.99,,,0.00,348,weatherlink.com 1.10,2013-02-18 18:41:00,
2013-02-18 13:56:00,69.3,52.0,30.19,East,84,8.0,-999.0,54,-99.99,,,0.00,494,weatherlink.com 1.10,2013-02-18 18:56:00,
2013-02-18 14:11:00,68.4,52.0,30.19,ENE,57,10.0,-999.0,57,-99.99,,,0.00,272,weatherlink.com 1.10,2013-02-18 19:11:00,
2013-02-18 14:26:00,68.3,52.0,30.19,ENE,73,3.0,-999.0,56,-99.99,,,0.00,248,weatherlink.com 1.10,2013-02-18 19:26:00,
2013-02-18 14:41:00,68.1,52.0,30.18,NE,46,3.0,-999.0,56,-99.99,,,0.00,302,weatherlink.com 1.10,2013-02-18 19:41:00,
2013-02-18 14:56:00,69.1,53.0,30.17,ESE,106,2.0,-999.0,56,-99.99,,,0.00,872,weatherlink.com 1.10,2013-02-18 19:56:00,
2013-02-18 15:11:00,69.6,52.0,30.17,East,91,5.0,-999.0,53,-99.99,,,0.00,267,weatherlink.com 1.10,2013-02-18 20:11:00,
2013-02-18 15:26:00,69.6,53.0,30.16,East,94,0.0,-999.0,56,-99.99,,,0.00,812,weatherlink.com 1.10,2013-02-18 20:26:00,
2013-02-18 15:41:00,68.9,51.0,30.16,NE,41,6.0,-999.0,54,-99.99,,,0.00,197,weatherlink.com 1.10,2013-02-18 20:41:00,
2013-02-18 15:56:00,69.4,51.0,30.17,ESE,113,0.0,-999.0,52,-99.99,,,0.00,295,weatherlink.com 1.10,2013-02-18 20:56:00,
2013-02-18 16:11:00,69.9,51.0,30.16,ESE,117,0.0,-999.0,51,-99.99,,,0.00,211,weatherlink.com 1.10,2013-02-18 21:11:00,
2013-02-18 16:26:00,69.3,50.0,30.16,SE,131,2.0,-999.0,51,-99.99,,,0.00,123,weatherlink.com 1.10,2013-02-18 21:26:00,
2013-02-18 16:41:00,68.6,51.0,30.17,SE,128,3.0,-999.0,53,-99.99,,,0.00,188,weatherlink.com 1.10,2013-02-18 21:41:00,
2013-02-18 16:56:00,68.4,50.0,30.17,ENE,61,0.0,-999.0,53,-99.99,,,0.00,95,weatherlink.com 1.10,2013-02-18 21:56:00,
2013-02-18 17:11:00,68.4,52.0,30.17,ENE,59,3.0,-999.0,56,-99.99,,,0.00,63,weatherlink.com 1.10,2013-02-18 22:11:00,
2013-02-18 17:26:00,68.1,52.0,30.17,ENE,72,9.0,-999.0,57,-99.99,,,0.00,37,weatherlink.com 1.10,2013-02-18 22:26:00,
2013-02-18 17:41:00,67.9,52.0,30.17,East,79,0.0,-999.0,57,-99.99,,,0.00,35,weatherlink.com 1.10,2013-02-18 22:41:00,
2013-02-18 17:56:00,67.8,53.0,30.17,ENE,67,4.0,-999.0,59,-99.99,,,0.00,18,weatherlink.com 1.10,2013-02-18 22:56:00,
2013-02-18 18:11:00,67.6,53.0,30.17,East,87,0.0,-999.0,60,-99.99,,,0.00,0,weatherlink.com 1.10,2013-02-18 23:11:00,
2013-02-18 18:26:00,67.3,52.0,30.17,South,175,0.0,-999.0,59,-99.99,,,0.00,0,weatherlink.com 1.10,2013-02-18 23:26:00,
2013-02-18 18:41:00,67.3,52.0,30.17,SSE,147,2.0,-999.0,59,-99.99,,,0.00,0,weatherlink.com 1.10,2013-02-18 23:41:00,
2013-02-18 18:56:00,67.1,53.0,30.17,NE,46,4.0,-999.0,61,-99.99,,,0.00,0,weatherlink.com 1.10,2013-02-18 23:56:00,
2013-02-18 19:11:00,66.9,53.0,30.16,ENE,76,4.0,-999.0,62,-99.99,,,0.00,0,weatherlink.com 1.10,2013-02-19 00:11:00,
2013-02-18 19:26:00,66.9,53.0,30.16,East,82,4.0,-999.0,62,-99.99,,,0.00,0,weatherlink.com 1.10,2013-02-19 00:26:00,
2013-02-18 19:41:00,67.3,54.0,30.16,East,92,1.0,-999.0,62,-99.99,,,0.00,0,weatherlink.com 1.10,2013-02-19 00:41:00,
2013-02-18 19:56:00,67.3,54.0,30.17,NNE,32,0.0,-999.0,63,-99.99,,,0.00,0,weatherlink.com 1.10,2013-02-19 00:56:00,
2013-02-18 20:11:00,67.1,54.0,30.16,ESE,107,2.0,-999.0,63,-99.99,,,0.00,0,weatherlink.com 1.10,2013-02-19 01:11:00,
2013-02-18 20:26:00,67.1,54.0,30.16,ENE,62,2.0,-999.0,64,-99.99,,,0.00,0,weatherlink.com 1.10,2013-02-19 01:26:00,
2013-02-18 20:41:00,67.1,54.0,30.16,East,87,1.0,-999.0,64,-99.99,,,0.00,0,weatherlink.com 1.10,2013-02-19 01:41:00,
2013-02-18 20:56:00,67.3,55.0,30.16,ENE,58,5.0,-999.0,65,-99.99,,,0.00,0,weatherlink.com 1.10,2013-02-19 01:56:00,
2013-02-18 21:11:00,67.6,56.0,30.16,ESE,122,3.0,-999.0,66,-99.99,,,0.00,0,weatherlink.com 1.10,2013-02-19 02:11:00,
2013-02-18 21:26:00,67.8,56.0,30.16,ESE,109,3.0,-999.0,66,-99.99,,,0.00,0,weatherlink.com 1.10,2013-02-19 02:26:00,
2013-02-18 21:41:00,67.8,56.0,30.16,East,91,3.0,-999.0,66,-99.99,,,0.00,0,weatherlink.com 1.10,2013-02-19 02:41:00,
2013-02-18 22:11:00,67.8,56.0,30.15,SE,132,2.0,-999.0,65,-99.99,,,0.00,0,weatherlink.com 1.10,2013-02-19 03:11:00,
2013-02-18 22:26:00,67.9,55.0,30.15,ESE,118,1.0,-999.0,64,-99.99,,,0.00,0,weatherlink.com 1.10,2013-02-19 03:26:00,
2013-02-18 22:56:00,67.9,55.0,30.15,SE,129,2.0,-999.0,64,-99.99,,,0.00,0,weatherlink.com 1.10,2013-02-19 03:56:00,
2013-02-18 23:11:00,68.1,56.0,30.15,SE,136,2.0,-999.0,65,-99.99,,,0.00,0,weatherlink.com 1.10,2013-02-19 04:11:00,
2013-02-18 23:26:00,67.9,56.0,30.15,SSE,148,6.0,-999.0,65,-99.99,,,0.00,0,weatherlink.com 1.10,2013-02-19 04:26:00,
2013-02-18 23:41:00,68.1,56.0,30.15,ESE,119,3.0,-999.0,65,-99.99,,,0.00,0,weatherlink.com 1.10,2013-02-19 04:41:00,
2013-02-18 23:56:00,68.3,56.0,30.14,SSE,167,13.0,-999.0,65,-99.99,,,0.00,0,weatherlink.com 1.10,2013-02-19 04:56:00,